createdAt,value
2022-09-10T00:01:11.898Z,99180.92
2022-09-10T00:04:15.531Z,99187.02
2022-09-10T00:07:18.800Z,99183.73
2022-09-10T00:10:20.861Z,99185.60
2022-09-10T00:13:22.853Z,99176.82
2022-09-10T00:16:25.557Z,99173.17
2022-09-10T00:19:28.579Z,99180.88
2022-09-10T00:22:30.358Z,99180.95
2022-09-10T00:25:32.401Z,99180.10
2022-09-10T00:28:34.168Z,99190.27
2022-09-10T00:31:36.500Z,99197.23
2022-09-10T00:34:38.308Z,99199.20
2022-09-10T00:37:40.651Z,99200.42
2022-09-10T00:40:42.413Z,99201.59
2022-09-10T00:43:54.532Z,99200.75
2022-09-10T00:46:56.317Z,99202.20
2022-09-10T00:50:06.710Z,99198.58
2022-09-10T00:53:12.841Z,99200.46
2022-09-10T00:56:14.516Z,99202.48
2022-09-10T00:59:18.968Z,99203.61
2022-09-10T01:02:21.799Z,99200.73
2022-09-10T01:05:24.428Z,99198.35
2022-09-10T01:08:27.545Z,99195.02
2022-09-10T01:11:36.014Z,99195.42
2022-09-10T01:14:48.856Z,99192.19
2022-09-10T01:18:07.091Z,99191.20
2022-09-10T01:21:22.193Z,99186.77
2022-09-10T01:24:52.450Z,99182.09
2022-09-10T01:27:55.585Z,99185.58
2022-09-10T01:31:05.671Z,99186.09
2022-09-10T01:34:14.084Z,99186.05
2022-09-10T01:37:25.890Z,99185.74
2022-09-10T01:40:31.092Z,99183.23
2022-09-10T01:43:33.914Z,99177.19
2022-09-10T01:46:49.787Z,99177.48
2022-09-10T01:50:21.048Z,99177.05
2022-09-10T01:53:33.458Z,99176.77
2022-09-10T01:57:07.365Z,99174.50
2022-09-10T02:00:15.372Z,99179.08
2022-09-10T02:03:21.222Z,99177.06
2022-09-10T02:06:28.007Z,99178.33
2022-09-10T02:09:29.660Z,99177.85
2022-09-10T02:12:31.383Z,99178.48
2022-09-10T02:15:33.413Z,99180.10
2022-09-10T02:18:35.251Z,99179.05
2022-09-10T02:21:37.434Z,99176.17
2022-09-10T02:24:39.136Z,99173.45
2022-09-10T02:27:43.665Z,99162.98
2022-09-10T02:30:45.312Z,99157.50
2022-09-10T02:33:47.353Z,99154.08
2022-09-10T02:36:49.614Z,99145.20
2022-09-10T02:39:51.410Z,99136.36
2022-09-10T02:42:53.126Z,99123.80
2022-09-10T02:45:57.174Z,99121.01
2022-09-10T02:48:59.191Z,99115.32
2022-09-10T02:52:02.933Z,99117.35
2022-09-10T02:55:04.929Z,99118.73
2022-09-10T02:58:07.179Z,99117.29
2022-09-10T03:01:19.376Z,99119.80
2022-09-10T03:04:21.105Z,99114.73
2022-09-10T03:07:22.826Z,99111.86
2022-09-10T03:10:24.562Z,99112.58
2022-09-10T03:13:30.291Z,99112.81
2022-09-10T03:16:32.088Z,99119.77
2022-09-10T03:19:33.885Z,99130.52
2022-09-10T03:22:35.576Z,99133.86
2022-09-10T03:25:37.209Z,99136.20
2022-09-10T03:28:39.144Z,99133.26
2022-09-10T03:31:41.205Z,99128.72
2022-09-10T03:34:44.355Z,99126.16
2022-09-10T03:37:46.098Z,99127.23
2022-09-10T03:40:47.919Z,99128.51
2022-09-10T03:43:49.614Z,99132.62
2022-09-10T03:46:52.146Z,99132.84
2022-09-10T03:49:53.830Z,99128.73
2022-09-10T03:52:56.414Z,99124.51
2022-09-10T03:55:58.546Z,99124.13
2022-09-10T03:59:00.658Z,99121.73
2022-09-10T04:02:03.248Z,99116.34
2022-09-10T04:05:07.053Z,99114.55
2022-09-10T04:08:10.010Z,99114.29
2022-09-10T04:11:11.782Z,99118.70
2022-09-10T04:14:13.413Z,99118.30
2022-09-10T04:17:15.178Z,99119.27
2022-09-10T04:20:17.853Z,99122.61
2022-09-10T04:23:19.602Z,99119.27
2022-09-10T04:26:21.322Z,99117.89
2022-09-10T04:29:23.421Z,99116.66
2022-09-10T04:32:25.053Z,99122.98
2022-09-10T04:35:26.839Z,99116.77
2022-09-10T04:38:30.469Z,99112.52
2022-09-10T04:41:32.391Z,99110.69
2022-09-10T04:44:34.117Z,99111.19
2022-09-10T04:47:36.262Z,99111.53
2022-09-10T04:50:50.152Z,99112.52
2022-09-10T04:54:01.832Z,99110.79
2022-09-10T04:57:06.935Z,99102.94
2022-09-10T05:00:09.213Z,99094.63
2022-09-10T05:03:11.201Z,99094.27
2022-09-10T05:06:12.836Z,99095.77
2022-09-10T05:09:14.506Z,99085.10
2022-09-10T05:12:16.594Z,99088.26
2022-09-10T05:15:18.265Z,99085.83
2022-09-10T05:18:19.961Z,99089.41
2022-09-10T05:21:22.468Z,99092.94
2022-09-10T05:24:24.228Z,99090.02
2022-09-10T05:27:25.956Z,99091.77
2022-09-10T05:30:33.026Z,99096.45
2022-09-10T05:33:35.124Z,99096.17
2022-09-10T05:36:36.835Z,99090.80
2022-09-10T05:39:38.493Z,99091.84
2022-09-10T05:42:40.138Z,99092.00
2022-09-10T05:45:41.805Z,99094.63
2022-09-10T05:48:43.885Z,99095.23
2022-09-10T05:51:45.833Z,99092.83
2022-09-10T05:54:47.421Z,99089.70
2022-09-10T05:57:49.232Z,99091.64
2022-09-10T06:00:51.650Z,99094.56
2022-09-10T06:03:53.389Z,99088.36
2022-09-10T06:06:55.127Z,99079.48
2022-09-10T06:09:57.830Z,99073.79
2022-09-10T06:12:59.535Z,99073.39
2022-09-10T06:16:01.346Z,99075.45
2022-09-10T06:19:03.446Z,99078.00
2022-09-10T06:22:05.333Z,99077.52
2022-09-10T06:25:07.375Z,99080.67
2022-09-10T06:28:09.725Z,99083.45
2022-09-10T06:31:17.043Z,99085.79
2022-09-10T06:34:19.114Z,99084.27
2022-09-10T06:37:20.869Z,99082.54
2022-09-10T06:40:22.566Z,99083.84
2022-09-10T06:43:26.067Z,99083.27
2022-09-10T06:49:49.549Z,99088.36
2022-09-10T06:52:51.717Z,99090.21
2022-09-10T06:55:53.805Z,99092.83
2022-09-10T06:59:01.494Z,99091.66
2022-09-10T07:02:04.158Z,99093.97
2022-09-10T07:05:06.249Z,99099.75
2022-09-10T07:08:08.221Z,99103.45
2022-09-10T07:11:14.892Z,99102.35
2022-09-10T07:14:18.100Z,99103.27
2022-09-10T07:17:21.229Z,99104.11
2022-09-10T07:20:23.510Z,99102.46
2022-09-10T07:23:25.344Z,99094.50
2022-09-10T07:26:27.874Z,99095.77
2022-09-10T07:29:31.379Z,99097.69
2022-09-10T07:32:33.684Z,99093.49
2022-09-10T07:35:36.657Z,99091.58
2022-09-10T07:38:39.546Z,99091.61
2022-09-10T07:41:41.310Z,99095.38
2022-09-10T07:44:42.939Z,99099.50
2022-09-10T07:47:44.661Z,99096.13
2022-09-10T07:50:46.350Z,99096.58
2022-09-10T07:53:53.536Z,99098.29
2022-09-10T07:56:55.932Z,99098.68
2022-09-10T07:59:58.332Z,99095.16
2022-09-10T08:03:00.634Z,99092.60
2022-09-10T08:06:02.828Z,99092.20
2022-09-10T08:09:07.187Z,99091.52
2022-09-10T08:12:09.483Z,99090.23
2022-09-10T08:15:11.389Z,99086.77
2022-09-10T08:18:13.809Z,99089.80
2022-09-10T08:21:16.954Z,99089.44
2022-09-10T08:24:18.784Z,99089.91
2022-09-10T08:27:20.498Z,99091.16
2022-09-10T08:30:22.218Z,99090.80
2022-09-10T08:33:25.005Z,99090.00
2022-09-10T08:36:26.838Z,99091.27
2022-09-10T08:39:28.602Z,99085.42
2022-09-10T08:42:50.212Z,99087.94
2022-09-10T08:45:52.245Z,99084.89
2022-09-10T08:49:14.536Z,99085.30
2022-09-10T08:52:34.999Z,99086.16
2022-09-10T08:55:38.180Z,99088.06
2022-09-10T08:58:49.039Z,99089.16
2022-09-10T09:02:04.649Z,99092.90
2022-09-10T09:05:15.758Z,99091.53
2022-09-10T09:08:21.919Z,99093.67
2022-09-10T09:11:39.555Z,99089.64
2022-09-10T09:15:09.964Z,99093.36
2022-09-10T09:18:28.175Z,99095.23
2022-09-10T09:21:42.062Z,99095.79
2022-09-10T09:24:57.899Z,99098.70
2022-09-10T09:27:59.730Z,99098.83
2022-09-10T09:31:14.642Z,99093.96
2022-09-10T09:34:22.737Z,99093.61
2022-09-10T09:37:30.186Z,99095.51
2022-09-10T09:40:37.205Z,99093.03
2022-09-10T09:44:03.745Z,99091.91
2022-09-10T09:47:05.385Z,99088.40
2022-09-10T09:50:10.949Z,99089.54
2022-09-10T09:53:27.933Z,99092.38
2022-09-10T09:56:35.968Z,99087.77
2022-09-10T09:59:37.670Z,99086.38
2022-09-10T10:02:39.647Z,99081.20
2022-09-10T10:05:42.495Z,99079.71
2022-09-10T10:09:30.789Z,99076.02
2022-09-10T10:12:33.255Z,99070.00
2022-09-10T10:15:41.922Z,99062.94
2022-09-10T10:18:45.148Z,99058.94
2022-09-10T10:21:47.472Z,99056.67
2022-09-10T10:24:52.626Z,99056.60
2022-09-10T10:27:54.422Z,99060.75
2022-09-10T10:30:59.575Z,99060.60
2022-09-10T10:34:28.540Z,99065.52
2022-09-10T10:37:30.766Z,99066.28
2022-09-10T10:40:35.196Z,99066.45
2022-09-10T10:44:06.386Z,99065.45
2022-09-10T10:47:27.420Z,99063.29
2022-09-10T10:50:52.881Z,99068.36
2022-09-10T10:54:16.747Z,99069.84
2022-09-10T10:57:40.414Z,99069.20
2022-09-10T11:01:35.092Z,99071.54
2022-09-10T11:04:51.687Z,99066.33
2022-09-10T11:07:54.698Z,99071.80
2022-09-10T11:11:01.317Z,99073.19
2022-09-10T11:14:38.786Z,99070.77
2022-09-10T11:17:53.501Z,99070.92
2022-09-10T11:21:11.728Z,99072.02
2022-09-10T11:24:37.998Z,99074.06
2022-09-10T11:27:46.751Z,99073.86
2022-09-10T11:30:54.699Z,99069.54
2022-09-10T11:34:11.152Z,99069.18
2022-09-10T11:37:20.294Z,99065.09
2022-09-10T11:40:52.309Z,99059.73
2022-09-10T11:44:18.022Z,99052.14
2022-09-10T11:47:26.958Z,99047.55
2022-09-10T11:50:48.780Z,99046.23
2022-09-10T11:53:50.882Z,99043.93
2022-09-10T11:57:04.248Z,99043.67
2022-09-10T12:00:09.967Z,99041.10
2022-09-10T12:03:28.844Z,99035.83
2022-09-10T12:06:33.943Z,99031.77
2022-09-10T12:09:58.588Z,99031.99
2022-09-10T12:13:00.951Z,99026.09
2022-09-10T12:16:29.533Z,99017.39
2022-09-10T12:19:38.096Z,99009.66
2022-09-10T12:22:40.532Z,99008.80
2022-09-10T12:25:42.295Z,99006.59
2022-09-10T12:28:53.191Z,99006.34
2022-09-10T12:32:10.514Z,99002.50
2022-09-10T12:35:35.395Z,98997.23
2022-09-10T12:39:08.947Z,98994.55
2022-09-10T12:42:31.887Z,98983.89
2022-09-10T12:46:12.764Z,98983.11
2022-09-10T12:49:16.956Z,98984.14
2022-09-10T12:52:26.001Z,98981.77
2022-09-10T12:56:15.805Z,98986.41
2022-09-10T12:59:42.731Z,98980.29
2022-09-10T13:03:01.395Z,98978.96
2022-09-10T13:06:04.625Z,98974.73
2022-09-10T13:09:18.053Z,98974.90
2022-09-10T13:12:21.141Z,98966.68
2022-09-10T13:15:37.202Z,98966.13
2022-09-10T13:18:39.089Z,98964.74
2022-09-10T13:21:40.825Z,98964.89
2022-09-10T13:25:00.848Z,98962.05
2022-09-10T13:28:16.856Z,98968.96
2022-09-10T13:31:23.411Z,98966.95
2022-09-10T13:35:01.649Z,98966.55
2022-09-10T13:38:09.402Z,98961.17
2022-09-10T13:41:38.732Z,98960.20
2022-09-10T13:44:59.266Z,98962.86
2022-09-10T13:48:06.343Z,98964.54
2022-09-10T13:51:19.849Z,98961.40
2022-09-10T13:54:43.585Z,98958.29
2022-09-10T13:57:48.945Z,98960.56
2022-09-10T14:00:56.283Z,98962.39
2022-09-10T14:03:58.312Z,98961.81
2022-09-10T14:07:13.155Z,98959.37
2022-09-10T14:10:15.228Z,98957.24
2022-09-10T14:13:22.530Z,98961.60
2022-09-10T14:16:44.309Z,98963.14
2022-09-10T14:19:47.882Z,98959.29
2022-09-10T14:23:00.025Z,98954.24
2022-09-10T14:26:14.928Z,98957.77
2022-09-10T14:29:24.683Z,98956.19
2022-09-10T14:32:34.410Z,98955.40
2022-09-10T14:35:44.136Z,98957.21
2022-09-10T14:38:58.684Z,98957.08
2022-09-10T14:42:24.022Z,98951.85
2022-09-10T14:45:49.891Z,98945.53
2022-09-10T14:49:01.624Z,98946.00
2022-09-10T14:52:04.116Z,98944.51
2022-09-10T14:55:06.376Z,98942.13
2022-09-10T14:58:08.036Z,98944.13
2022-09-10T15:01:09.739Z,98947.35
2022-09-10T15:04:16.821Z,98946.66
2022-09-10T15:07:19.048Z,98941.14
2022-09-10T15:10:20.770Z,98938.77
2022-09-10T15:13:22.427Z,98936.38
2022-09-10T15:16:24.107Z,98938.65
2022-09-10T15:19:25.956Z,98939.15
2022-09-10T15:22:30.488Z,98939.66
2022-09-10T15:25:39.563Z,98942.69
2022-09-10T15:28:41.920Z,98939.09
2022-09-10T15:31:44.284Z,98937.43
2022-09-10T15:34:46.002Z,98934.43
2022-09-10T15:37:47.756Z,98935.94
2022-09-10T15:40:50.612Z,98935.43
2022-09-10T15:43:52.373Z,98927.88
2022-09-10T15:46:54.046Z,98924.60
2022-09-10T15:49:56.764Z,98923.81
2022-09-10T15:52:59.291Z,98919.36
2022-09-10T15:56:02.886Z,98922.64
2022-09-10T15:59:08.778Z,98927.04
2022-09-10T16:02:13.199Z,98932.57
2022-09-10T16:05:16.420Z,98930.17
2022-09-10T16:08:18.108Z,98928.62
2022-09-10T16:11:20.350Z,98927.74
2022-09-10T16:14:23.541Z,98930.08
2022-09-10T16:17:25.410Z,98929.23
2022-09-10T16:20:27.515Z,98933.48
2022-09-10T16:23:29.188Z,98937.89
2022-09-10T16:26:36.841Z,98941.34
2022-09-10T16:29:40.189Z,98937.14
2022-09-10T16:32:41.831Z,98945.98
2022-09-10T16:35:43.469Z,98946.84
2022-09-10T16:38:45.468Z,98946.39
2022-09-10T16:41:48.785Z,98937.79
2022-09-10T16:44:50.493Z,98929.02
2022-09-10T16:47:55.392Z,98929.34
2022-09-10T16:51:12.994Z,98931.88
2022-09-10T16:54:14.945Z,98935.46
2022-09-10T16:57:16.595Z,98937.22
2022-09-10T17:00:19.103Z,98935.09
2022-09-10T17:03:23.924Z,98930.50
2022-09-10T17:06:27.654Z,98929.94
2022-09-10T17:09:29.393Z,98925.90
2022-09-10T17:12:31.002Z,98926.91
2022-09-10T17:15:32.803Z,98925.92
2022-09-10T17:18:34.479Z,98930.61
2022-09-10T17:21:38.142Z,98925.42
2022-09-10T17:24:39.765Z,98926.73
2022-09-10T17:27:41.492Z,98930.92
2022-09-10T17:30:43.190Z,98934.02
2022-09-10T17:33:44.980Z,98929.80
2022-09-10T17:36:47.794Z,98919.67
2022-09-10T17:39:51.630Z,98914.20
2022-09-10T17:42:53.921Z,98917.48
2022-09-10T17:45:55.962Z,98924.23
2022-09-10T17:48:59.049Z,98926.02
2022-09-10T17:52:00.879Z,98928.33
2022-09-10T17:55:02.653Z,98921.64
2022-09-10T17:58:04.318Z,98921.71
2022-09-10T18:01:09.002Z,98920.25
2022-09-10T18:04:15.750Z,98923.91
2022-09-10T18:07:18.355Z,98924.16
2022-09-10T18:10:20.557Z,98935.00
2022-09-10T18:13:23.192Z,98938.42
2022-09-10T18:16:27.595Z,98938.55
2022-09-10T18:19:29.328Z,98946.90
2022-09-10T18:22:31.049Z,98966.93
2022-09-10T18:25:33.186Z,98971.58
2022-09-10T18:28:34.838Z,98958.45
2022-09-10T18:31:42.255Z,98955.02
2022-09-10T19:14:31.973Z,98925.04
2022-09-10T19:17:38.814Z,98928.55
2022-09-10T19:20:40.749Z,98928.95
2022-09-10T19:23:42.515Z,98928.73
2022-09-10T19:26:44.804Z,98933.79
2022-09-10T19:29:47.387Z,98931.66
2022-09-10T19:32:49.190Z,98932.02
2022-09-10T19:35:55.928Z,98933.72
2022-09-10T19:38:59.701Z,98930.59
2022-09-10T19:42:01.322Z,98935.34
2022-09-10T19:45:05.915Z,98931.06
2022-09-10T19:48:11.299Z,98940.71
2022-09-10T19:51:15.402Z,98939.34
2022-09-10T19:54:17.099Z,98943.44
2022-09-10T19:57:18.900Z,98942.92
2022-09-10T20:00:45.395Z,98944.05
2022-09-10T20:03:44.869Z,98944.64
2022-09-10T20:06:47.731Z,98947.52
2022-09-10T20:09:49.744Z,98947.81
2022-09-10T20:12:52.239Z,98952.67
2022-09-10T20:15:54.550Z,98954.13
2022-09-10T20:18:56.474Z,98952.70
2022-09-10T20:21:58.153Z,98959.06
2022-09-10T20:25:00.013Z,98957.33
2022-09-10T20:28:01.991Z,98956.02
2022-09-10T20:31:09.013Z,98956.95
2022-09-10T20:34:12.864Z,98954.02
2022-09-10T20:37:14.488Z,98951.85
2022-09-10T20:40:16.116Z,98944.91
2022-09-10T20:43:17.889Z,98950.14
2022-09-10T20:46:22.412Z,98946.62
2022-09-10T20:49:24.390Z,98942.98
2022-09-10T20:52:26.177Z,98942.52
2022-09-10T20:55:27.965Z,98941.69
2022-09-10T20:58:29.590Z,98943.57
2022-09-10T21:01:31.297Z,98942.98
2022-09-10T21:04:33.213Z,98940.02
2022-09-10T21:07:35.046Z,98936.80
2022-09-10T21:10:37.676Z,98940.24
2022-09-10T21:13:49.856Z,98942.20
2022-09-10T21:16:51.890Z,98941.29
2022-09-10T21:19:53.813Z,98942.20
2022-09-10T21:22:56.510Z,98943.21
2022-09-10T21:25:58.258Z,98944.34
2022-09-10T21:29:03.612Z,98940.77
2022-09-10T21:32:05.356Z,98944.05
2022-09-10T21:35:07.485Z,98943.80
2022-09-10T21:38:09.168Z,98946.97
2022-09-10T21:41:12.604Z,98949.24
2022-09-10T21:44:16.737Z,98950.95
2022-09-10T21:47:18.482Z,98956.19
2022-09-10T21:50:20.206Z,98954.93
2022-09-10T21:53:22.674Z,98956.34
2022-09-10T21:56:26.292Z,98956.04
2022-09-10T21:59:27.929Z,98951.23
2022-09-10T22:02:31.678Z,98953.02
2022-09-10T22:05:33.504Z,98948.23
2022-09-10T22:08:36.349Z,98953.05
2022-09-10T22:11:41.899Z,98950.67
2022-09-10T22:14:43.586Z,98951.19
2022-09-10T22:17:45.330Z,98947.88
2022-09-10T22:20:47.095Z,98945.43
2022-09-10T22:23:51.554Z,98945.01
2022-09-10T22:26:54.788Z,98943.09
2022-09-10T22:29:56.910Z,98942.61
2022-09-10T22:32:58.569Z,98939.05
2022-09-10T22:36:13.524Z,98938.04
2022-09-10T22:39:17.857Z,98937.66
2022-09-10T22:42:21.165Z,98928.73
2022-09-10T22:45:24.060Z,98929.93
2022-09-10T22:48:25.700Z,98928.67
2022-09-10T22:51:29.610Z,98929.29
2022-09-10T22:54:31.460Z,98930.88
2022-09-10T22:57:33.132Z,98924.58
2022-09-10T23:00:36.105Z,98922.98
2022-09-10T23:03:38.006Z,98922.60
2022-09-10T23:07:00.933Z,98928.45
2022-09-10T23:10:02.737Z,98932.55
2022-09-10T23:13:05.268Z,98930.48
2022-09-10T23:16:11.428Z,98932.71
2022-09-10T23:19:15.677Z,98927.23
2022-09-10T23:22:17.638Z,98932.09
2022-09-10T23:25:19.722Z,98933.60
2022-09-10T23:28:26.704Z,98937.29
2022-09-10T23:31:29.655Z,98936.77
2022-09-10T23:34:31.467Z,98934.61
2022-09-10T23:37:33.424Z,98935.70
2022-09-10T23:40:35.128Z,98935.69
2022-09-10T23:43:36.947Z,98936.36
2022-09-10T23:46:38.899Z,98937.88
2022-09-10T23:49:40.665Z,98936.77
2022-09-10T23:52:42.318Z,98936.00
2022-09-10T23:55:44.258Z,98937.10
2022-09-10T23:58:46.418Z,98937.62
